Portada
METAR-TAF:

METAR-TAF

Aeropuertos :

Aeropuerto de Oujda Angads

Oujda, Marruecos

latitud: 34-47N, longitud: 001-56W, altitud: 468 m

Observación

El informe se hizo hace 21 minutos, a las 09:30 UTC
Viento 3 kt con dirección variable
Temperatura 20°C
Humedad 53%
Presión 1013 hPa
Visibilidad 10 km o más

METAR: GMFO 180930Z VRB03KT 9999 NCD 20/10 Q1013 NOSIG

Hora: 10:51 (09:51 UTC)

Pronóstico

El informe se hizo hace 4 horas y 51 minutos, a las 05:00 UTC
Pronóstico válido del 18 a las 06 UTC al 19 a las 12 UTC
Viento 2 kt con dirección variable
Visibilidad 10 km o más
sin nubes por debajo de 1500 m y sin presencia de cumulonimbus.
Temporalmente
del 18 a las 12 UTC al 18 a las 16 UTC
Viento 16 kt del norte

TAF: GMFO 180500Z 1806/1912 VRB02KT CAVOK TEMPO 1812/1816 35016KT

Observaciones y pronósticos meteorológicos de más de 4000 aeropuertos (mensajes METAR y TAF).

Los puntos amarillos y rojos representan las estaciones disponibles.

Ponga el ratón en el punto deseado para ver el nombre de la estación.

Haga clic para ver las observaciones y los pronósticos meteorológicos.

Para cambiar el mapa : haga clic en los botones verdes con una cruz de color negro para hacer un zoom, en el botón verde con un guión para alejar o en las flechas verdes para mapas adyacentes.


METAR-TAF: